sensor_id;sensor_type;location;lat;lon;timestamp;P1;durP1;ratioP1;P2;durP2;ratioP2
33104;SDS011;19476;51.448;6.674;2023-04-24T00:01:00;0.93;;;0.50;;
33104;SDS011;19476;51.448;6.674;2023-04-24T00:03:26;1.17;;;0.75;;
33104;SDS011;19476;51.448;6.674;2023-04-24T00:05:53;1.55;;;0.43;;
33104;SDS011;19476;51.448;6.674;2023-04-24T00:08:34;1.55;;;0.70;;
33104;SDS011;19476;51.448;6.674;2023-04-24T00:11:01;0.82;;;0.50;;
33104;SDS011;19476;51.448;6.674;2023-04-24T00:13:27;2.25;;;0.70;;
33104;SDS011;19476;51.448;6.674;2023-04-24T00:15:56;2.00;;;0.70;;
33104;SDS011;19476;51.448;6.674;2023-04-24T00:18:26;1.15;;;0.60;;
33104;SDS011;19476;51.448;6.674;2023-04-24T00:20:52;1.05;;;0.63;;
33104;SDS011;19476;51.448;6.674;2023-04-24T00:23:18;1.10;;;0.50;;
33104;SDS011;19476;51.448;6.674;2023-04-24T00:25:44;3.80;;;0.73;;
33104;SDS011;19476;51.448;6.674;2023-04-24T00:28:11;2.17;;;0.60;;
33104;SDS011;19476;51.448;6.674;2023-04-24T00:30:37;1.30;;;0.70;;
33104;SDS011;19476;51.448;6.674;2023-04-24T00:33:03;1.45;;;0.70;;
33104;SDS011;19476;51.448;6.674;2023-04-24T00:35:29;1.65;;;0.93;;
33104;SDS011;19476;51.448;6.674;2023-04-24T00:37:55;2.33;;;0.90;;
33104;SDS011;19476;51.448;6.674;2023-04-24T00:40:24;2.67;;;1.02;;
33104;SDS011;19476;51.448;6.674;2023-04-24T00:42:53;1.67;;;1.00;;
33104;SDS011;19476;51.448;6.674;2023-04-24T00:45:20;1.98;;;1.10;;
33104;SDS011;19476;51.448;6.674;2023-04-24T00:47:46;3.35;;;1.35;;
33104;SDS011;19476;51.448;6.674;2023-04-24T00:50:14;2.65;;;0.98;;
33104;SDS011;19476;51.448;6.674;2023-04-24T00:52:41;3.25;;;1.02;;
33104;SDS011;19476;51.448;6.674;2023-04-24T00:55:07;3.58;;;1.58;;
33104;SDS011;19476;51.448;6.674;2023-04-24T00:57:33;2.60;;;1.38;;
33104;SDS011;19476;51.448;6.674;2023-04-24T01:00:00;2.42;;;1.48;;
33104;SDS011;19476;51.448;6.674;2023-04-24T01:02:27;3.17;;;1.88;;
33104;SDS011;19476;51.448;6.674;2023-04-24T01:04:53;3.42;;;1.45;;
33104;SDS011;19476;51.448;6.674;2023-04-24T01:07:22;3.72;;;1.60;;
33104;SDS011;19476;51.448;6.674;2023-04-24T01:09:48;3.53;;;1.88;;
33104;SDS011;19476;51.448;6.674;2023-04-24T01:12:18;3.25;;;1.77;;
33104;SDS011;19476;51.448;6.674;2023-04-24T01:14:53;3.60;;;1.65;;
33104;SDS011;19476;51.448;6.674;2023-04-24T01:17:21;3.95;;;2.00;;
33104;SDS011;19476;51.448;6.674;2023-04-24T01:19:47;3.80;;;1.42;;
33104;SDS011;19476;51.448;6.674;2023-04-24T01:22:16;5.03;;;2.38;;
33104;SDS011;19476;51.448;6.674;2023-04-24T01:24:42;4.40;;;2.20;;
33104;SDS011;19476;51.448;6.674;2023-04-24T01:27:14;5.88;;;2.38;;
33104;SDS011;19476;51.448;6.674;2023-04-24T01:29:40;3.08;;;1.92;;
33104;SDS011;19476;51.448;6.674;2023-04-24T01:32:06;3.83;;;2.15;;
33104;SDS011;19476;51.448;6.674;2023-04-24T01:34:32;4.75;;;2.45;;
33104;SDS011;19476;51.448;6.674;2023-04-24T01:37:02;3.58;;;2.22;;
33104;SDS011;19476;51.448;6.674;2023-04-24T01:39:28;5.20;;;1.97;;
33104;SDS011;19476;51.448;6.674;2023-04-24T01:41:54;4.18;;;2.08;;
33104;SDS011;19476;51.448;6.674;2023-04-24T01:44:21;3.75;;;2.17;;
33104;SDS011;19476;51.448;6.674;2023-04-24T01:46:47;4.90;;;2.08;;
33104;SDS011;19476;51.448;6.674;2023-04-24T01:49:13;4.65;;;2.40;;
33104;SDS011;19476;51.448;6.674;2023-04-24T01:51:47;4.28;;;2.30;;
33104;SDS011;19476;51.448;6.674;2023-04-24T01:54:24;4.93;;;2.38;;
33104;SDS011;19476;51.448;6.674;2023-04-24T01:56:51;3.35;;;1.98;;
33104;SDS011;19476;51.448;6.674;2023-04-24T01:59:17;3.22;;;1.85;;
33104;SDS011;19476;51.448;6.674;2023-04-24T02:01:46;3.97;;;2.45;;
33104;SDS011;19476;51.448;6.674;2023-04-24T02:04:20;4.63;;;2.30;;
33104;SDS011;19476;51.448;6.674;2023-04-24T02:06:49;5.15;;;2.50;;
33104;SDS011;19476;51.448;6.674;2023-04-24T02:09:15;3.83;;;2.17;;
33104;SDS011;19476;51.448;6.674;2023-04-24T02:11:41;6.65;;;2.85;;
33104;SDS011;19476;51.448;6.674;2023-04-24T02:14:07;5.80;;;2.72;;
33104;SDS011;19476;51.448;6.674;2023-04-24T02:16:34;5.88;;;3.22;;
33104;SDS011;19476;51.448;6.674;2023-04-24T02:19:01;6.00;;;2.92;;
33104;SDS011;19476;51.448;6.674;2023-04-24T02:21:36;6.00;;;2.88;;
33104;SDS011;19476;51.448;6.674;2023-04-24T02:24:02;10.27;;;3.65;;
33104;SDS011;19476;51.448;6.674;2023-04-24T02:26:28;5.00;;;3.00;;
33104;SDS011;19476;51.448;6.674;2023-04-24T02:28:56;7.28;;;3.72;;
33104;SDS011;19476;51.448;6.674;2023-04-24T02:31:22;7.47;;;3.60;;
33104;SDS011;19476;51.448;6.674;2023-04-24T02:33:47;7.35;;;3.58;;
33104;SDS011;19476;51.448;6.674;2023-04-24T02:36:13;5.93;;;3.17;;
33104;SDS011;19476;51.448;6.674;2023-04-24T02:38:42;7.07;;;4.13;;
33104;SDS011;19476;51.448;6.674;2023-04-24T02:41:08;7.43;;;4.13;;
33104;SDS011;19476;51.448;6.674;2023-04-24T02:43:34;7.82;;;4.40;;
33104;SDS011;19476;51.448;6.674;2023-04-24T02:46:01;7.53;;;3.97;;
33104;SDS011;19476;51.448;6.674;2023-04-24T02:48:27;9.45;;;4.57;;
33104;SDS011;19476;51.448;6.674;2023-04-24T02:50:53;8.10;;;4.25;;
33104;SDS011;19476;51.448;6.674;2023-04-24T02:53:19;9.50;;;4.68;;
33104;SDS011;19476;51.448;6.674;2023-04-24T02:55:45;7.57;;;4.40;;
33104;SDS011;19476;51.448;6.674;2023-04-24T02:58:12;8.63;;;4.63;;
33104;SDS011;19476;51.448;6.674;2023-04-24T03:00:40;7.83;;;4.40;;
33104;SDS011;19476;51.448;6.674;2023-04-24T03:03:06;12.73;;;4.55;;
33104;SDS011;19476;51.448;6.674;2023-04-24T03:05:32;9.70;;;4.68;;
33104;SDS011;19476;51.448;6.674;2023-04-24T03:07:59;8.57;;;4.70;;
33104;SDS011;19476;51.448;6.674;2023-04-24T03:10:25;6.93;;;4.20;;
33104;SDS011;19476;51.448;6.674;2023-04-24T03:12:51;8.27;;;4.72;;
33104;SDS011;19476;51.448;6.674;2023-04-24T03:15:17;11.90;;;6.00;;
33104;SDS011;19476;51.448;6.674;2023-04-24T03:17:43;10.30;;;4.32;;
33104;SDS011;19476;51.448;6.674;2023-04-24T03:20:09;9.68;;;5.18;;
33104;SDS011;19476;51.448;6.674;2023-04-24T03:22:35;9.48;;;5.50;;
33104;SDS011;19476;51.448;6.674;2023-04-24T03:25:01;10.18;;;4.90;;
33104;SDS011;19476;51.448;6.674;2023-04-24T03:27:27;11.10;;;5.43;;
33104;SDS011;19476;51.448;6.674;2023-04-24T03:29:54;13.70;;;5.97;;
33104;SDS011;19476;51.448;6.674;2023-04-24T03:32:22;9.25;;;5.43;;
33104;SDS011;19476;51.448;6.674;2023-04-24T03:34:51;10.30;;;5.25;;
33104;SDS011;19476;51.448;6.674;2023-04-24T03:37:18;9.80;;;5.38;;
33104;SDS011;19476;51.448;6.674;2023-04-24T03:39:43;7.32;;;4.90;;
33104;SDS011;19476;51.448;6.674;2023-04-24T03:42:09;8.65;;;5.00;;
33104;SDS011;19476;51.448;6.674;2023-04-24T03:44:35;9.20;;;5.47;;
33104;SDS011;19476;51.448;6.674;2023-04-24T03:47:07;8.55;;;5.20;;
33104;SDS011;19476;51.448;6.674;2023-04-24T03:49:33;7.13;;;4.80;;
33104;SDS011;19476;51.448;6.674;2023-04-24T03:52:01;8.68;;;5.00;;
33104;SDS011;19476;51.448;6.674;2023-04-24T03:54:28;9.05;;;5.10;;
33104;SDS011;19476;51.448;6.674;2023-04-24T03:56:54;7.80;;;3.95;;
33104;SDS011;19476;51.448;6.674;2023-04-24T03:59:20;8.75;;;4.47;;
33104;SDS011;19476;51.448;6.674;2023-04-24T04:01:46;10.13;;;5.25;;
33104;SDS011;19476;51.448;6.674;2023-04-24T04:04:14;14.23;;;5.65;;
33104;SDS011;19476;51.448;6.674;2023-04-24T04:06:40;10.68;;;4.60;;
33104;SDS011;19476;51.448;6.674;2023-04-24T04:09:07;8.32;;;5.35;;
33104;SDS011;19476;51.448;6.674;2023-04-24T04:11:33;8.20;;;4.32;;
33104;SDS011;19476;51.448;6.674;2023-04-24T04:14:00;8.70;;;4.85;;
33104;SDS011;19476;51.448;6.674;2023-04-24T04:16:27;9.50;;;5.07;;
33104;SDS011;19476;51.448;6.674;2023-04-24T04:18:56;8.70;;;4.43;;
33104;SDS011;19476;51.448;6.674;2023-04-24T04:21:25;7.13;;;4.13;;
33104;SDS011;19476;51.448;6.674;2023-04-24T04:24:06;7.75;;;4.53;;
33104;SDS011;19476;51.448;6.674;2023-04-24T04:26:32;7.80;;;4.95;;
33104;SDS011;19476;51.448;6.674;2023-04-24T04:28:59;10.07;;;4.38;;
33104;SDS011;19476;51.448;6.674;2023-04-24T04:31:28;7.65;;;4.80;;
33104;SDS011;19476;51.448;6.674;2023-04-24T04:33:55;7.65;;;4.43;;
33104;SDS011;19476;51.448;6.674;2023-04-24T04:36:21;8.02;;;4.80;;
33104;SDS011;19476;51.448;6.674;2023-04-24T04:38:49;10.05;;;4.72;;
33104;SDS011;19476;51.448;6.674;2023-04-24T04:41:15;8.25;;;4.90;;
33104;SDS011;19476;51.448;6.674;2023-04-24T04:43:45;11.02;;;4.28;;
33104;SDS011;19476;51.448;6.674;2023-04-24T04:46:12;6.63;;;3.40;;
33104;SDS011;19476;51.448;6.674;2023-04-24T04:48:45;9.48;;;4.28;;
33104;SDS011;19476;51.448;6.674;2023-04-24T04:51:12;12.00;;;4.78;;
33104;SDS011;19476;51.448;6.674;2023-04-24T04:53:58;7.13;;;4.50;;
33104;SDS011;19476;51.448;6.674;2023-04-24T04:56:37;8.05;;;3.60;;
33104;SDS011;19476;51.448;6.674;2023-04-24T04:59:04;7.97;;;3.90;;
33104;SDS011;19476;51.448;6.674;2023-04-24T05:01:31;6.72;;;3.60;;
33104;SDS011;19476;51.448;6.674;2023-04-24T05:03:59;7.15;;;3.47;;
33104;SDS011;19476;51.448;6.674;2023-04-24T05:06:47;8.13;;;4.07;;
33104;SDS011;19476;51.448;6.674;2023-04-24T05:09:12;5.88;;;3.45;;
33104;SDS011;19476;51.448;6.674;2023-04-24T05:11:38;7.53;;;3.90;;
33104;SDS011;19476;51.448;6.674;2023-04-24T05:14:04;7.88;;;3.60;;
33104;SDS011;19476;51.448;6.674;2023-04-24T05:16:29;5.65;;;3.67;;
33104;SDS011;19476;51.448;6.674;2023-04-24T05:18:56;5.82;;;3.50;;
33104;SDS011;19476;51.448;6.674;2023-04-24T05:21:21;6.53;;;3.55;;
33104;SDS011;19476;51.448;6.674;2023-04-24T05:23:47;5.15;;;3.10;;
33104;SDS011;19476;51.448;6.674;2023-04-24T05:26:13;6.55;;;3.30;;
33104;SDS011;19476;51.448;6.674;2023-04-24T05:28:39;5.93;;;3.58;;
33104;SDS011;19476;51.448;6.674;2023-04-24T05:31:05;6.78;;;4.40;;
33104;SDS011;19476;51.448;6.674;2023-04-24T05:33:31;7.75;;;3.63;;
33104;SDS011;19476;51.448;6.674;2023-04-24T05:35:57;7.35;;;3.67;;
33104;SDS011;19476;51.448;6.674;2023-04-24T05:38:23;6.20;;;3.42;;
33104;SDS011;19476;51.448;6.674;2023-04-24T05:40:49;6.97;;;4.00;;
33104;SDS011;19476;51.448;6.674;2023-04-24T05:43:14;6.07;;;3.70;;
33104;SDS011;19476;51.448;6.674;2023-04-24T05:45:40;6.43;;;3.15;;
33104;SDS011;19476;51.448;6.674;2023-04-24T05:48:06;6.45;;;3.70;;
33104;SDS011;19476;51.448;6.674;2023-04-24T05:50:32;6.63;;;3.63;;
33104;SDS011;19476;51.448;6.674;2023-04-24T05:52:57;5.82;;;3.25;;
33104;SDS011;19476;51.448;6.674;2023-04-24T05:55:24;7.10;;;4.00;;
33104;SDS011;19476;51.448;6.674;2023-04-24T05:57:51;5.82;;;3.25;;
33104;SDS011;19476;51.448;6.674;2023-04-24T06:00:16;6.68;;;3.70;;
33104;SDS011;19476;51.448;6.674;2023-04-24T06:02:44;8.68;;;3.55;;
33104;SDS011;19476;51.448;6.674;2023-04-24T06:05:10;6.97;;;4.05;;
33104;SDS011;19476;51.448;6.674;2023-04-24T06:07:36;5.82;;;3.35;;
33104;SDS011;19476;51.448;6.674;2023-04-24T06:10:02;7.18;;;4.00;;
33104;SDS011;19476;51.448;6.674;2023-04-24T06:12:28;7.13;;;3.70;;
33104;SDS011;19476;51.448;6.674;2023-04-24T06:14:54;6.65;;;3.95;;
33104;SDS011;19476;51.448;6.674;2023-04-24T06:17:20;6.38;;;3.38;;
33104;SDS011;19476;51.448;6.674;2023-04-24T06:19:46;7.10;;;3.58;;
33104;SDS011;19476;51.448;6.674;2023-04-24T06:22:12;6.22;;;3.00;;
33104;SDS011;19476;51.448;6.674;2023-04-24T06:24:41;6.53;;;3.08;;
33104;SDS011;19476;51.448;6.674;2023-04-24T06:27:07;7.13;;;2.83;;
33104;SDS011;19476;51.448;6.674;2023-04-24T06:29:33;4.30;;;2.78;;
33104;SDS011;19476;51.448;6.674;2023-04-24T06:31:59;5.68;;;2.70;;
33104;SDS011;19476;51.448;6.674;2023-04-24T06:34:25;5.45;;;2.88;;
33104;SDS011;19476;51.448;6.674;2023-04-24T06:36:50;4.88;;;3.00;;
33104;SDS011;19476;51.448;6.674;2023-04-24T06:39:16;5.15;;;2.45;;
33104;SDS011;19476;51.448;6.674;2023-04-24T06:41:42;4.32;;;2.42;;
33104;SDS011;19476;51.448;6.674;2023-04-24T06:44:08;5.22;;;2.25;;
33104;SDS011;19476;51.448;6.674;2023-04-24T06:46:33;5.35;;;2.80;;
33104;SDS011;19476;51.448;6.674;2023-04-24T06:49:00;4.88;;;2.58;;
33104;SDS011;19476;51.448;6.674;2023-04-24T06:51:26;2.88;;;1.92;;
33104;SDS011;19476;51.448;6.674;2023-04-24T06:53:55;4.13;;;2.35;;
33104;SDS011;19476;51.448;6.674;2023-04-24T06:56:21;3.78;;;2.05;;
33104;SDS011;19476;51.448;6.674;2023-04-24T06:58:47;3.90;;;2.08;;
33104;SDS011;19476;51.448;6.674;2023-04-24T07:01:13;2.65;;;1.83;;
33104;SDS011;19476;51.448;6.674;2023-04-24T07:03:39;3.03;;;1.92;;
33104;SDS011;19476;51.448;6.674;2023-04-24T07:06:05;4.22;;;1.85;;
33104;SDS011;19476;51.448;6.674;2023-04-24T07:08:31;3.95;;;1.88;;
33104;SDS011;19476;51.448;6.674;2023-04-24T07:10:58;1.73;;;1.13;;
33104;SDS011;19476;51.448;6.674;2023-04-24T07:13:24;4.82;;;1.55;;
33104;SDS011;19476;51.448;6.674;2023-04-24T07:15:50;2.55;;;1.00;;
33104;SDS011;19476;51.448;6.674;2023-04-24T07:18:17;1.00;;;0.60;;
33104;SDS011;19476;51.448;6.674;2023-04-24T07:20:43;1.48;;;0.68;;
33104;SDS011;19476;51.448;6.674;2023-04-24T07:23:10;0.90;;;0.60;;
33104;SDS011;19476;51.448;6.674;2023-04-24T07:25:35;1.42;;;0.60;;
33104;SDS011;19476;51.448;6.674;2023-04-24T07:28:01;0.93;;;0.40;;
33104;SDS011;19476;51.448;6.674;2023-04-24T07:30:28;0.80;;;0.52;;
33104;SDS011;19476;51.448;6.674;2023-04-24T07:32:54;1.83;;;0.50;;
33104;SDS011;19476;51.448;6.674;2023-04-24T07:35:20;1.33;;;0.50;;
33104;SDS011;19476;51.448;6.674;2023-04-24T07:37:46;0.88;;;0.50;;
33104;SDS011;19476;51.448;6.674;2023-04-24T07:40:12;0.73;;;0.47;;
33104;SDS011;19476;51.448;6.674;2023-04-24T07:42:38;2.05;;;0.40;;
33104;SDS011;19476;51.448;6.674;2023-04-24T07:45:05;0.50;;;0.40;;
33104;SDS011;19476;51.448;6.674;2023-04-24T07:47:31;0.80;;;0.30;;
33104;SDS011;19476;51.448;6.674;2023-04-24T07:49:58;0.77;;;0.30;;
33104;SDS011;19476;51.448;6.674;2023-04-24T07:52:24;0.80;;;0.47;;
33104;SDS011;19476;51.448;6.674;2023-04-24T07:54:50;0.60;;;0.40;;
33104;SDS011;19476;51.448;6.674;2023-04-24T07:57:17;0.60;;;0.40;;
33104;SDS011;19476;51.448;6.674;2023-04-24T07:59:43;0.57;;;0.20;;
33104;SDS011;19476;51.448;6.674;2023-04-24T08:02:09;0.82;;;0.38;;
33104;SDS011;19476;51.448;6.674;2023-04-24T08:04:35;0.63;;;0.30;;
33104;SDS011;19476;51.448;6.674;2023-04-24T08:07:01;0.85;;;0.60;;
33104;SDS011;19476;51.448;6.674;2023-04-24T08:09:27;0.70;;;0.40;;
33104;SDS011;19476;51.448;6.674;2023-04-24T08:11:53;1.13;;;0.40;;
33104;SDS011;19476;51.448;6.674;2023-04-24T08:14:18;2.40;;;0.77;;
33104;SDS011;19476;51.448;6.674;2023-04-24T08:16:44;0.98;;;0.40;;
33104;SDS011;19476;51.448;6.674;2023-04-24T08:19:10;0.82;;;0.40;;
33104;SDS011;19476;51.448;6.674;2023-04-24T08:21:36;1.00;;;0.40;;
33104;SDS011;19476;51.448;6.674;2023-04-24T08:24:02;0.40;;;0.30;;
33104;SDS011;19476;51.448;6.674;2023-04-24T08:26:30;0.80;;;0.50;;
33104;SDS011;19476;51.448;6.674;2023-04-24T08:28:56;1.05;;;0.40;;
33104;SDS011;19476;51.448;6.674;2023-04-24T08:31:22;0.63;;;0.40;;
33104;SDS011;19476;51.448;6.674;2023-04-24T08:33:49;0.30;;;0.30;;
33104;SDS011;19476;51.448;6.674;2023-04-24T08:36:15;2.83;;;0.40;;
33104;SDS011;19476;51.448;6.674;2023-04-24T08:38:42;0.95;;;0.30;;
33104;SDS011;19476;51.448;6.674;2023-04-24T08:41:08;1.10;;;0.30;;
33104;SDS011;19476;51.448;6.674;2023-04-24T08:43:34;0.57;;;0.30;;
33104;SDS011;19476;51.448;6.674;2023-04-24T08:46:03;0.45;;;0.20;;
33104;SDS011;19476;51.448;6.674;2023-04-24T08:48:29;0.68;;;0.20;;
33104;SDS011;19476;51.448;6.674;2023-04-24T08:50:56;0.28;;;0.20;;
33104;SDS011;19476;51.448;6.674;2023-04-24T08:53:22;0.50;;;0.30;;
33104;SDS011;19476;51.448;6.674;2023-04-24T08:55:50;1.27;;;0.28;;
33104;SDS011;19476;51.448;6.674;2023-04-24T08:58:19;4.45;;;0.75;;
33104;SDS011;19476;51.448;6.674;2023-04-24T09:00:45;2.22;;;1.30;;
33104;SDS011;19476;51.448;6.674;2023-04-24T09:03:13;4.05;;;1.83;;
33104;SDS011;19476;51.448;6.674;2023-04-24T09:05:40;5.70;;;3.05;;
33104;SDS011;19476;51.448;6.674;2023-04-24T09:08:16;3.42;;;2.13;;
33104;SDS011;19476;51.448;6.674;2023-04-24T09:10:43;5.25;;;2.58;;
33104;SDS011;19476;51.448;6.674;2023-04-24T09:13:10;5.00;;;2.70;;
33104;SDS011;19476;51.448;6.674;2023-04-24T09:15:36;6.35;;;3.08;;
33104;SDS011;19476;51.448;6.674;2023-04-24T09:18:03;5.57;;;3.08;;
33104;SDS011;19476;51.448;6.674;2023-04-24T09:20:30;5.50;;;2.70;;
33104;SDS011;19476;51.448;6.674;2023-04-24T09:22:57;3.72;;;2.15;;
33104;SDS011;19476;51.448;6.674;2023-04-24T09:25:25;4.40;;;2.08;;
33104;SDS011;19476;51.448;6.674;2023-04-24T09:28:04;4.63;;;1.90;;
33104;SDS011;19476;51.448;6.674;2023-04-24T09:30:31;4.25;;;2.00;;
33104;SDS011;19476;51.448;6.674;2023-04-24T09:33:10;4.18;;;2.00;;
33104;SDS011;19476;51.448;6.674;2023-04-24T09:35:40;5.70;;;2.38;;
33104;SDS011;19476;51.448;6.674;2023-04-24T09:38:07;4.70;;;2.35;;
33104;SDS011;19476;51.448;6.674;2023-04-24T09:40:34;5.63;;;2.63;;
33104;SDS011;19476;51.448;6.674;2023-04-24T09:43:00;5.50;;;2.65;;
33104;SDS011;19476;51.448;6.674;2023-04-24T09:45:28;3.72;;;2.00;;
33104;SDS011;19476;51.448;6.674;2023-04-24T09:48:01;5.25;;;2.13;;
33104;SDS011;19476;51.448;6.674;2023-04-24T09:50:29;5.53;;;2.38;;
33104;SDS011;19476;51.448;6.674;2023-04-24T09:53:06;4.55;;;2.42;;
33104;SDS011;19476;51.448;6.674;2023-04-24T09:55:39;3.95;;;2.33;;
33104;SDS011;19476;51.448;6.674;2023-04-24T09:58:09;4.85;;;2.40;;
33104;SDS011;19476;51.448;6.674;2023-04-24T10:00:36;5.50;;;2.55;;
33104;SDS011;19476;51.448;6.674;2023-04-24T10:03:02;3.78;;;1.90;;
33104;SDS011;19476;51.448;6.674;2023-04-24T10:05:33;6.95;;;2.25;;
33104;SDS011;19476;51.448;6.674;2023-04-24T10:08:01;5.07;;;2.15;;
33104;SDS011;19476;51.448;6.674;2023-04-24T10:10:30;4.73;;;1.87;;
33104;SDS011;19476;51.448;6.674;2023-04-24T10:12:57;6.22;;;1.90;;
33104;SDS011;19476;51.448;6.674;2023-04-24T10:15:24;5.15;;;2.00;;
33104;SDS011;19476;51.448;6.674;2023-04-24T10:17:51;6.15;;;1.88;;
33104;SDS011;19476;51.448;6.674;2023-04-24T10:20:22;6.45;;;2.10;;
33104;SDS011;19476;51.448;6.674;2023-04-24T10:22:50;3.70;;;1.55;;
33104;SDS011;19476;51.448;6.674;2023-04-24T10:25:21;6.13;;;2.53;;
33104;SDS011;19476;51.448;6.674;2023-04-24T10:27:49;4.60;;;1.90;;
33104;SDS011;19476;51.448;6.674;2023-04-24T10:30:16;6.35;;;2.05;;
33104;SDS011;19476;51.448;6.674;2023-04-24T10:32:43;6.72;;;2.20;;
33104;SDS011;19476;51.448;6.674;2023-04-24T10:35:09;5.63;;;1.88;;
33104;SDS011;19476;51.448;6.674;2023-04-24T10:37:54;5.10;;;1.77;;
33104;SDS011;19476;51.448;6.674;2023-04-24T10:40:26;6.60;;;2.08;;
33104;SDS011;19476;51.448;6.674;2023-04-24T10:42:55;6.50;;;1.80;;
33104;SDS011;19476;51.448;6.674;2023-04-24T10:45:24;5.57;;;2.00;;
33104;SDS011;19476;51.448;6.674;2023-04-24T10:48:03;6.88;;;1.80;;
33104;SDS011;19476;51.448;6.674;2023-04-24T10:53:15;5.72;;;2.15;;
33104;SDS011;19476;51.448;6.674;2023-04-24T10:55:49;8.40;;;2.50;;
33104;SDS011;19476;51.448;6.674;2023-04-24T10:58:16;5.07;;;2.00;;
33104;SDS011;19476;51.448;6.674;2023-04-24T11:00:55;8.07;;;1.90;;
33104;SDS011;19476;51.448;6.674;2023-04-24T11:03:23;5.38;;;1.83;;
33104;SDS011;19476;51.448;6.674;2023-04-24T11:10:54;6.50;;;2.17;;
33104;SDS011;19476;51.448;6.674;2023-04-24T11:13:27;5.75;;;2.00;;
33104;SDS011;19476;51.448;6.674;2023-04-24T11:18:41;6.53;;;1.98;;
33104;SDS011;19476;51.448;6.674;2023-04-24T11:21:15;6.35;;;2.55;;
33104;SDS011;19476;51.448;6.674;2023-04-24T11:23:42;5.25;;;1.67;;
33104;SDS011;19476;51.448;6.674;2023-04-24T11:26:09;7.32;;;1.80;;
33104;SDS011;19476;51.448;6.674;2023-04-24T11:28:46;4.72;;;1.85;;
33104;SDS011;19476;51.448;6.674;2023-04-24T11:36:42;6.85;;;2.00;;
33104;SDS011;19476;51.448;6.674;2023-04-24T11:39:10;5.05;;;1.33;;
33104;SDS011;19476;51.448;6.674;2023-04-24T11:41:36;5.85;;;1.75;;
33104;SDS011;19476;51.448;6.674;2023-04-24T11:44:02;9.13;;;2.70;;
33104;SDS011;19476;51.448;6.674;2023-04-24T11:46:30;5.03;;;1.73;;
33104;SDS011;19476;51.448;6.674;2023-04-24T11:48:57;4.53;;;1.55;;
33104;SDS011;19476;51.448;6.674;2023-04-24T11:51:24;6.28;;;2.00;;
33104;SDS011;19476;51.448;6.674;2023-04-24T11:53:51;4.88;;;1.38;;
33104;SDS011;19476;51.448;6.674;2023-04-24T11:56:21;4.07;;;1.90;;
33104;SDS011;19476;51.448;6.674;2023-04-24T11:58:48;4.05;;;1.58;;
33104;SDS011;19476;51.448;6.674;2023-04-24T12:01:14;3.25;;;1.35;;
33104;SDS011;19476;51.448;6.674;2023-04-24T12:03:40;5.05;;;1.77;;
33104;SDS011;19476;51.448;6.674;2023-04-24T12:06:09;3.78;;;1.88;;
33104;SDS011;19476;51.448;6.674;2023-04-24T12:08:37;4.00;;;1.55;;
33104;SDS011;19476;51.448;6.674;2023-04-24T12:11:03;4.05;;;1.60;;
33104;SDS011;19476;51.448;6.674;2023-04-24T12:13:32;3.55;;;1.58;;
33104;SDS011;19476;51.448;6.674;2023-04-24T12:15:58;4.80;;;1.33;;
33104;SDS011;19476;51.448;6.674;2023-04-24T12:18:27;4.22;;;1.70;;
33104;SDS011;19476;51.448;6.674;2023-04-24T12:20:52;3.85;;;1.38;;
33104;SDS011;19476;51.448;6.674;2023-04-24T12:23:33;2.97;;;1.23;;
33104;SDS011;19476;51.448;6.674;2023-04-24T12:26:03;5.53;;;1.27;;
33104;SDS011;19476;51.448;6.674;2023-04-24T12:28:34;4.45;;;1.13;;
33104;SDS011;19476;51.448;6.674;2023-04-24T12:31:01;2.17;;;1.00;;
33104;SDS011;19476;51.448;6.674;2023-04-24T12:33:27;3.42;;;1.00;;
33104;SDS011;19476;51.448;6.674;2023-04-24T12:38:26;3.10;;;0.90;;
33104;SDS011;19476;51.448;6.674;2023-04-24T12:41:01;2.20;;;0.73;;
33104;SDS011;19476;51.448;6.674;2023-04-24T12:43:29;2.53;;;0.75;;
33104;SDS011;19476;51.448;6.674;2023-04-24T12:45:55;3.30;;;0.85;;
33104;SDS011;19476;51.448;6.674;2023-04-24T12:48:21;2.03;;;0.93;;
33104;SDS011;19476;51.448;6.674;2023-04-24T12:50:48;1.67;;;0.80;;
33104;SDS011;19476;51.448;6.674;2023-04-24T12:53:14;1.65;;;0.88;;
33104;SDS011;19476;51.448;6.674;2023-04-24T12:55:40;1.25;;;0.63;;
33104;SDS011;19476;51.448;6.674;2023-04-24T12:58:06;1.33;;;0.60;;
33104;SDS011;19476;51.448;6.674;2023-04-24T13:00:32;1.70;;;0.60;;
33104;SDS011;19476;51.448;6.674;2023-04-24T13:02:58;2.50;;;0.43;;
33104;SDS011;19476;51.448;6.674;2023-04-24T13:05:24;1.23;;;0.57;;
33104;SDS011;19476;51.448;6.674;2023-04-24T13:07:50;2.17;;;0.70;;
33104;SDS011;19476;51.448;6.674;2023-04-24T13:10:16;1.10;;;0.57;;
33104;SDS011;19476;51.448;6.674;2023-04-24T13:12:42;3.70;;;0.70;;
33104;SDS011;19476;51.448;6.674;2023-04-24T13:15:11;1.17;;;0.50;;
33104;SDS011;19476;51.448;6.674;2023-04-24T13:17:37;1.45;;;0.45;;
33104;SDS011;19476;51.448;6.674;2023-04-24T13:20:03;3.17;;;0.50;;
33104;SDS011;19476;51.448;6.674;2023-04-24T13:22:30;1.95;;;0.70;;
33104;SDS011;19476;51.448;6.674;2023-04-24T13:24:55;1.98;;;0.40;;
33104;SDS011;19476;51.448;6.674;2023-04-24T13:27:24;4.68;;;0.70;;
33104;SDS011;19476;51.448;6.674;2023-04-24T13:29:50;1.90;;;0.52;;
33104;SDS011;19476;51.448;6.674;2023-04-24T13:32:16;1.92;;;0.40;;
33104;SDS011;19476;51.448;6.674;2023-04-24T13:34:42;2.05;;;0.60;;
33104;SDS011;19476;51.448;6.674;2023-04-24T13:37:08;1.38;;;0.40;;
33104;SDS011;19476;51.448;6.674;2023-04-24T13:39:34;2.85;;;0.55;;
33104;SDS011;19476;51.448;6.674;2023-04-24T13:42:00;2.47;;;0.45;;
33104;SDS011;19476;51.448;6.674;2023-04-24T13:44:26;2.88;;;0.70;;
33104;SDS011;19476;51.448;6.674;2023-04-24T13:46:52;2.22;;;0.60;;
33104;SDS011;19476;51.448;6.674;2023-04-24T13:49:21;3.73;;;0.80;;
33104;SDS011;19476;51.448;6.674;2023-04-24T13:51:49;2.72;;;0.85;;
33104;SDS011;19476;51.448;6.674;2023-04-24T13:54:16;3.97;;;0.95;;
33104;SDS011;19476;51.448;6.674;2023-04-24T13:56:42;2.90;;;0.60;;
33104;SDS011;19476;51.448;6.674;2023-04-24T13:59:08;1.65;;;0.70;;
33104;SDS011;19476;51.448;6.674;2023-04-24T14:01:34;1.80;;;0.52;;
33104;SDS011;19476;51.448;6.674;2023-04-24T14:04:00;1.77;;;0.60;;
33104;SDS011;19476;51.448;6.674;2023-04-24T14:06:26;1.30;;;0.60;;
33104;SDS011;19476;51.448;6.674;2023-04-24T14:08:56;1.58;;;0.40;;
33104;SDS011;19476;51.448;6.674;2023-04-24T14:11:22;3.05;;;0.50;;
33104;SDS011;19476;51.448;6.674;2023-04-24T14:13:48;2.70;;;0.50;;
33104;SDS011;19476;51.448;6.674;2023-04-24T14:16:14;1.88;;;0.73;;
33104;SDS011;19476;51.448;6.674;2023-04-24T14:18:40;2.28;;;0.50;;
33104;SDS011;19476;51.448;6.674;2023-04-24T14:21:06;1.48;;;0.57;;
33104;SDS011;19476;51.448;6.674;2023-04-24T14:26:29;4.13;;;0.90;;
33104;SDS011;19476;51.448;6.674;2023-04-24T14:28:55;2.53;;;0.90;;
33104;SDS011;19476;51.448;6.674;2023-04-24T14:31:24;3.35;;;1.25;;
33104;SDS011;19476;51.448;6.674;2023-04-24T14:33:49;2.70;;;1.35;;
33104;SDS011;19476;51.448;6.674;2023-04-24T14:36:15;2.15;;;0.80;;
33104;SDS011;19476;51.448;6.674;2023-04-24T14:38:41;1.90;;;0.68;;
33104;SDS011;19476;51.448;6.674;2023-04-24T14:41:07;1.17;;;0.60;;
33104;SDS011;19476;51.448;6.674;2023-04-24T14:43:35;2.78;;;1.05;;
33104;SDS011;19476;51.448;6.674;2023-04-24T14:46:01;1.83;;;0.77;;
33104;SDS011;19476;51.448;6.674;2023-04-24T14:48:28;1.70;;;0.50;;
33104;SDS011;19476;51.448;6.674;2023-04-24T14:50:54;2.25;;;0.73;;
33104;SDS011;19476;51.448;6.674;2023-04-24T14:53:19;3.42;;;0.70;;
33104;SDS011;19476;51.448;6.674;2023-04-24T14:55:45;2.20;;;0.68;;
33104;SDS011;19476;51.448;6.674;2023-04-24T14:58:11;0.80;;;0.60;;
33104;SDS011;19476;51.448;6.674;2023-04-24T15:00:37;1.25;;;0.70;;
33104;SDS011;19476;51.448;6.674;2023-04-24T15:03:03;1.08;;;0.60;;
33104;SDS011;19476;51.448;6.674;2023-04-24T15:05:29;1.58;;;0.60;;
33104;SDS011;19476;51.448;6.674;2023-04-24T15:07:55;2.58;;;0.50;;
33104;SDS011;19476;51.448;6.674;2023-04-24T15:10:21;2.72;;;0.60;;